sensor_id;sensor_type;location;lat;lon;timestamp;P1;durP1;ratioP1;P2;durP2;ratioP2
20557;SDS011;10437;48.156;11.530;2022-07-06T00:00:02;3.03;;;1.30;;
20557;SDS011;10437;48.156;11.530;2022-07-06T00:02:29;2.08;;;1.50;;
20557;SDS011;10437;48.156;11.530;2022-07-06T00:04:56;3.15;;;1.35;;
20557;SDS011;10437;48.156;11.530;2022-07-06T00:07:24;3.17;;;1.60;;
20557;SDS011;10437;48.156;11.530;2022-07-06T00:09:51;2.67;;;1.40;;
20557;SDS011;10437;48.156;11.530;2022-07-06T00:12:18;2.53;;;1.50;;
20557;SDS011;10437;48.156;11.530;2022-07-06T00:14:46;2.33;;;1.45;;
20557;SDS011;10437;48.156;11.530;2022-07-06T00:17:13;1.83;;;1.23;;
20557;SDS011;10437;48.156;11.530;2022-07-06T00:19:40;6.25;;;1.40;;
20557;SDS011;10437;48.156;11.530;2022-07-06T00:22:07;2.45;;;1.55;;
20557;SDS011;10437;48.156;11.530;2022-07-06T00:24:34;5.45;;;1.40;;
20557;SDS011;10437;48.156;11.530;2022-07-06T00:27:01;3.30;;;1.30;;
20557;SDS011;10437;48.156;11.530;2022-07-06T00:29:28;1.27;;;1.17;;
20557;SDS011;10437;48.156;11.530;2022-07-06T00:31:57;1.60;;;1.33;;
20557;SDS011;10437;48.156;11.530;2022-07-06T00:34:24;2.22;;;1.60;;
20557;SDS011;10437;48.156;11.530;2022-07-06T00:36:51;5.30;;;1.50;;
20557;SDS011;10437;48.156;11.530;2022-07-06T00:39:18;1.38;;;1.15;;
20557;SDS011;10437;48.156;11.530;2022-07-06T00:41:46;3.42;;;1.30;;
20557;SDS011;10437;48.156;11.530;2022-07-06T00:44:14;4.55;;;1.30;;
20557;SDS011;10437;48.156;11.530;2022-07-06T00:46:41;3.53;;;1.30;;
20557;SDS011;10437;48.156;11.530;2022-07-06T00:49:09;4.10;;;1.42;;
20557;SDS011;10437;48.156;11.530;2022-07-06T00:51:56;5.55;;;1.50;;
20557;SDS011;10437;48.156;11.530;2022-07-06T00:54:24;4.10;;;1.30;;
20557;SDS011;10437;48.156;11.530;2022-07-06T00:56:52;1.25;;;1.10;;
20557;SDS011;10437;48.156;11.530;2022-07-06T00:59:19;3.10;;;1.63;;
20557;SDS011;10437;48.156;11.530;2022-07-06T01:01:46;3.38;;;1.33;;
20557;SDS011;10437;48.156;11.530;2022-07-06T01:04:14;3.00;;;1.55;;
20557;SDS011;10437;48.156;11.530;2022-07-06T01:06:41;3.03;;;1.30;;
20557;SDS011;10437;48.156;11.530;2022-07-06T01:09:08;2.90;;;1.25;;
20557;SDS011;10437;48.156;11.530;2022-07-06T01:11:35;3.03;;;1.48;;
20557;SDS011;10437;48.156;11.530;2022-07-06T01:14:02;4.68;;;1.30;;
20557;SDS011;10437;48.156;11.530;2022-07-06T01:16:29;2.13;;;1.38;;
20557;SDS011;10437;48.156;11.530;2022-07-06T01:18:57;2.58;;;1.40;;
20557;SDS011;10437;48.156;11.530;2022-07-06T01:21:25;5.18;;;1.90;;
20557;SDS011;10437;48.156;11.530;2022-07-06T01:23:52;3.15;;;1.40;;
20557;SDS011;10437;48.156;11.530;2022-07-06T01:26:19;2.65;;;1.17;;
20557;SDS011;10437;48.156;11.530;2022-07-06T01:28:47;8.23;;;1.50;;
20557;SDS011;10437;48.156;11.530;2022-07-06T01:31:17;3.22;;;1.45;;
20557;SDS011;10437;48.156;11.530;2022-07-06T01:33:47;2.25;;;1.35;;
20557;SDS011;10437;48.156;11.530;2022-07-06T01:36:15;3.53;;;1.50;;
20557;SDS011;10437;48.156;11.530;2022-07-06T01:38:47;2.38;;;1.23;;
20557;SDS011;10437;48.156;11.530;2022-07-06T01:41:15;1.60;;;1.08;;
20557;SDS011;10437;48.156;11.530;2022-07-06T01:43:42;3.30;;;1.30;;
20557;SDS011;10437;48.156;11.530;2022-07-06T01:46:10;1.77;;;1.35;;
20557;SDS011;10437;48.156;11.530;2022-07-06T01:48:37;1.67;;;1.38;;
20557;SDS011;10437;48.156;11.530;2022-07-06T01:51:04;4.40;;;1.27;;
20557;SDS011;10437;48.156;11.530;2022-07-06T01:53:31;3.63;;;1.40;;
20557;SDS011;10437;48.156;11.530;2022-07-06T01:56:00;3.30;;;1.13;;
20557;SDS011;10437;48.156;11.530;2022-07-06T01:58:26;3.47;;;1.20;;
20557;SDS011;10437;48.156;11.530;2022-07-06T02:00:53;1.73;;;1.10;;
20557;SDS011;10437;48.156;11.530;2022-07-06T02:03:21;8.63;;;1.30;;
20557;SDS011;10437;48.156;11.530;2022-07-06T02:05:48;3.95;;;1.52;;
20557;SDS011;10437;48.156;11.530;2022-07-06T02:08:15;4.50;;;1.15;;
20557;SDS011;10437;48.156;11.530;2022-07-06T02:10:42;5.40;;;1.20;;
20557;SDS011;10437;48.156;11.530;2022-07-06T02:13:10;1.27;;;1.15;;
20557;SDS011;10437;48.156;11.530;2022-07-06T02:15:37;4.38;;;1.45;;
20557;SDS011;10437;48.156;11.530;2022-07-06T02:18:04;2.90;;;1.00;;
20557;SDS011;10437;48.156;11.530;2022-07-06T02:20:31;1.92;;;1.30;;
20557;SDS011;10437;48.156;11.530;2022-07-06T02:22:58;2.55;;;1.30;;
20557;SDS011;10437;48.156;11.530;2022-07-06T02:25:25;1.52;;;1.30;;
20557;SDS011;10437;48.156;11.530;2022-07-06T02:27:51;2.53;;;1.40;;
20557;SDS011;10437;48.156;11.530;2022-07-06T02:30:20;2.28;;;1.20;;
20557;SDS011;10437;48.156;11.530;2022-07-06T02:32:47;2.53;;;1.15;;
20557;SDS011;10437;48.156;11.530;2022-07-06T02:35:14;2.30;;;1.20;;
20557;SDS011;10437;48.156;11.530;2022-07-06T02:37:41;2.20;;;1.48;;
20557;SDS011;10437;48.156;11.530;2022-07-06T02:40:08;1.42;;;1.10;;
20557;SDS011;10437;48.156;11.530;2022-07-06T02:42:35;1.63;;;1.20;;
20557;SDS011;10437;48.156;11.530;2022-07-06T02:45:03;2.08;;;1.17;;
20557;SDS011;10437;48.156;11.530;2022-07-06T02:47:31;1.27;;;1.15;;
20557;SDS011;10437;48.156;11.530;2022-07-06T02:49:58;1.98;;;1.20;;
20557;SDS011;10437;48.156;11.530;2022-07-06T02:52:25;1.52;;;1.00;;
20557;SDS011;10437;48.156;11.530;2022-07-06T02:54:52;2.50;;;1.23;;
20557;SDS011;10437;48.156;11.530;2022-07-06T02:57:19;2.83;;;1.20;;
20557;SDS011;10437;48.156;11.530;2022-07-06T02:59:46;4.55;;;1.00;;
20557;SDS011;10437;48.156;11.530;2022-07-06T03:02:14;5.10;;;1.20;;
20557;SDS011;10437;48.156;11.530;2022-07-06T03:04:42;2.70;;;1.13;;
20557;SDS011;10437;48.156;11.530;2022-07-06T03:07:09;1.50;;;1.30;;
20557;SDS011;10437;48.156;11.530;2022-07-06T03:09:36;5.30;;;1.30;;
20557;SDS011;10437;48.156;11.530;2022-07-06T03:12:03;2.85;;;1.30;;
20557;SDS011;10437;48.156;11.530;2022-07-06T03:14:30;1.63;;;1.10;;
20557;SDS011;10437;48.156;11.530;2022-07-06T03:16:57;4.20;;;1.30;;
20557;SDS011;10437;48.156;11.530;2022-07-06T03:19:24;2.75;;;1.30;;
20557;SDS011;10437;48.156;11.530;2022-07-06T03:21:53;1.88;;;1.25;;
20557;SDS011;10437;48.156;11.530;2022-07-06T03:24:20;3.00;;;1.30;;
20557;SDS011;10437;48.156;11.530;2022-07-06T03:26:47;1.77;;;1.30;;
20557;SDS011;10437;48.156;11.530;2022-07-06T03:29:13;1.70;;;1.13;;
20557;SDS011;10437;48.156;11.530;2022-07-06T03:31:41;4.57;;;1.30;;
20557;SDS011;10437;48.156;11.530;2022-07-06T03:34:07;2.97;;;1.40;;
20557;SDS011;10437;48.156;11.530;2022-07-06T03:36:34;3.40;;;1.73;;
20557;SDS011;10437;48.156;11.530;2022-07-06T03:39:03;1.70;;;1.23;;
20557;SDS011;10437;48.156;11.530;2022-07-06T03:41:29;2.00;;;1.20;;
20557;SDS011;10437;48.156;11.530;2022-07-06T03:43:57;1.25;;;1.10;;
20557;SDS011;10437;48.156;11.530;2022-07-06T03:46:24;3.45;;;1.52;;
20557;SDS011;10437;48.156;11.530;2022-07-06T03:48:51;2.85;;;1.40;;
20557;SDS011;10437;48.156;11.530;2022-07-06T03:51:18;6.32;;;1.40;;
20557;SDS011;10437;48.156;11.530;2022-07-06T03:53:45;1.45;;;1.13;;
20557;SDS011;10437;48.156;11.530;2022-07-06T03:56:14;2.58;;;1.40;;
20557;SDS011;10437;48.156;11.530;2022-07-06T03:58:58;3.92;;;1.50;;
20557;SDS011;10437;48.156;11.530;2022-07-06T04:01:26;4.90;;;1.30;;
20557;SDS011;10437;48.156;11.530;2022-07-06T04:03:54;2.67;;;1.38;;
20557;SDS011;10437;48.156;11.530;2022-07-06T04:06:22;1.65;;;1.25;;
20557;SDS011;10437;48.156;11.530;2022-07-06T04:08:49;2.00;;;1.17;;
20557;SDS011;10437;48.156;11.530;2022-07-06T04:11:17;6.10;;;1.60;;
20557;SDS011;10437;48.156;11.530;2022-07-06T04:13:44;2.28;;;1.58;;
20557;SDS011;10437;48.156;11.530;2022-07-06T04:16:11;2.70;;;1.15;;
20557;SDS011;10437;48.156;11.530;2022-07-06T04:18:38;2.72;;;1.17;;
20557;SDS011;10437;48.156;11.530;2022-07-06T04:21:05;3.88;;;1.35;;
20557;SDS011;10437;48.156;11.530;2022-07-06T04:23:32;2.83;;;1.40;;
20557;SDS011;10437;48.156;11.530;2022-07-06T04:25:59;3.83;;;1.73;;
20557;SDS011;10437;48.156;11.530;2022-07-06T04:28:27;5.45;;;1.80;;
20557;SDS011;10437;48.156;11.530;2022-07-06T04:30:54;1.60;;;1.35;;
20557;SDS011;10437;48.156;11.530;2022-07-06T04:33:21;2.47;;;1.65;;
20557;SDS011;10437;48.156;11.530;2022-07-06T04:35:48;6.50;;;1.60;;
20557;SDS011;10437;48.156;11.530;2022-07-06T04:38:15;7.80;;;1.65;;
20557;SDS011;10437;48.156;11.530;2022-07-06T04:40:42;3.55;;;1.45;;
20557;SDS011;10437;48.156;11.530;2022-07-06T04:43:11;2.38;;;1.50;;
20557;SDS011;10437;48.156;11.530;2022-07-06T04:45:39;2.60;;;1.50;;
20557;SDS011;10437;48.156;11.530;2022-07-06T04:48:06;4.43;;;1.70;;
20557;SDS011;10437;48.156;11.530;2022-07-06T04:50:34;1.52;;;1.25;;
20557;SDS011;10437;48.156;11.530;2022-07-06T04:53:01;3.40;;;1.65;;
20557;SDS011;10437;48.156;11.530;2022-07-06T04:55:28;3.00;;;1.67;;
20557;SDS011;10437;48.156;11.530;2022-07-06T04:57:55;3.05;;;1.48;;
20557;SDS011;10437;48.156;11.530;2022-07-06T05:00:22;2.08;;;1.60;;
20557;SDS011;10437;48.156;11.530;2022-07-06T05:02:50;1.85;;;1.30;;
20557;SDS011;10437;48.156;11.530;2022-07-06T05:05:17;1.75;;;1.30;;
20557;SDS011;10437;48.156;11.530;2022-07-06T05:07:44;2.63;;;1.58;;
20557;SDS011;10437;48.156;11.530;2022-07-06T05:10:11;2.30;;;1.42;;
20557;SDS011;10437;48.156;11.530;2022-07-06T05:12:38;3.05;;;1.58;;
20557;SDS011;10437;48.156;11.530;2022-07-06T05:15:06;3.85;;;1.80;;
20557;SDS011;10437;48.156;11.530;2022-07-06T05:17:33;3.33;;;1.40;;
20557;SDS011;10437;48.156;11.530;2022-07-06T05:20:02;1.60;;;1.50;;
20557;SDS011;10437;48.156;11.530;2022-07-06T05:22:30;4.20;;;1.33;;
20557;SDS011;10437;48.156;11.530;2022-07-06T05:24:57;1.98;;;1.40;;
20557;SDS011;10437;48.156;11.530;2022-07-06T05:27:24;2.28;;;1.33;;
20557;SDS011;10437;48.156;11.530;2022-07-06T05:29:51;3.00;;;1.45;;
20557;SDS011;10437;48.156;11.530;2022-07-06T05:32:18;1.85;;;1.40;;
20557;SDS011;10437;48.156;11.530;2022-07-06T05:34:45;2.38;;;1.60;;
20557;SDS011;10437;48.156;11.530;2022-07-06T05:37:14;3.10;;;1.48;;
20557;SDS011;10437;48.156;11.530;2022-07-06T05:39:41;2.40;;;1.30;;
20557;SDS011;10437;48.156;11.530;2022-07-06T05:42:10;3.90;;;1.50;;
20557;SDS011;10437;48.156;11.530;2022-07-06T05:44:37;4.18;;;1.67;;
20557;SDS011;10437;48.156;11.530;2022-07-06T05:47:04;1.55;;;1.30;;
20557;SDS011;10437;48.156;11.530;2022-07-06T05:49:49;4.28;;;1.55;;
20557;SDS011;10437;48.156;11.530;2022-07-06T05:52:35;1.90;;;1.45;;
20557;SDS011;10437;48.156;11.530;2022-07-06T05:55:02;5.07;;;1.60;;
20557;SDS011;10437;48.156;11.530;2022-07-06T05:57:29;2.60;;;1.33;;
20557;SDS011;10437;48.156;11.530;2022-07-06T05:59:57;4.43;;;1.65;;
20557;SDS011;10437;48.156;11.530;2022-07-06T06:02:24;1.52;;;1.40;;
20557;SDS011;10437;48.156;11.530;2022-07-06T06:04:52;2.20;;;1.30;;
20557;SDS011;10437;48.156;11.530;2022-07-06T06:07:19;3.90;;;1.88;;
20557;SDS011;10437;48.156;11.530;2022-07-06T06:09:47;3.95;;;1.63;;
20557;SDS011;10437;48.156;11.530;2022-07-06T06:12:14;2.53;;;1.50;;
20557;SDS011;10437;48.156;11.530;2022-07-06T06:14:41;5.13;;;1.63;;
20557;SDS011;10437;48.156;11.530;2022-07-06T06:17:08;2.65;;;1.60;;
20557;SDS011;10437;48.156;11.530;2022-07-06T06:19:36;8.38;;;1.92;;
20557;SDS011;10437;48.156;11.530;2022-07-06T06:22:03;2.05;;;1.60;;
20557;SDS011;10437;48.156;11.530;2022-07-06T06:24:31;7.60;;;2.05;;
20557;SDS011;10437;48.156;11.530;2022-07-06T06:27:00;4.28;;;1.65;;
20557;SDS011;10437;48.156;11.530;2022-07-06T06:29:27;5.43;;;1.77;;
20557;SDS011;10437;48.156;11.530;2022-07-06T06:31:54;5.82;;;1.60;;
20557;SDS011;10437;48.156;11.530;2022-07-06T06:34:20;2.90;;;1.50;;
20557;SDS011;10437;48.156;11.530;2022-07-06T06:36:48;6.88;;;1.60;;
20557;SDS011;10437;48.156;11.530;2022-07-06T06:39:15;5.75;;;1.75;;
20557;SDS011;10437;48.156;11.530;2022-07-06T06:41:42;5.65;;;1.95;;
20557;SDS011;10437;48.156;11.530;2022-07-06T06:44:10;4.72;;;1.70;;
20557;SDS011;10437;48.156;11.530;2022-07-06T06:46:37;1.75;;;1.27;;
20557;SDS011;10437;48.156;11.530;2022-07-06T06:49:04;2.92;;;1.60;;
20557;SDS011;10437;48.156;11.530;2022-07-06T06:51:32;2.08;;;1.20;;
20557;SDS011;10437;48.156;11.530;2022-07-06T06:53:59;5.38;;;1.67;;
20557;SDS011;10437;48.156;11.530;2022-07-06T06:56:26;6.60;;;1.63;;
20557;SDS011;10437;48.156;11.530;2022-07-06T06:58:53;3.67;;;1.73;;
20557;SDS011;10437;48.156;11.530;2022-07-06T07:01:21;4.03;;;1.98;;
20557;SDS011;10437;48.156;11.530;2022-07-06T07:03:49;2.25;;;1.90;;
20557;SDS011;10437;48.156;11.530;2022-07-06T07:06:16;2.20;;;1.70;;
20557;SDS011;10437;48.156;11.530;2022-07-06T07:08:43;4.00;;;1.67;;
20557;SDS011;10437;48.156;11.530;2022-07-06T07:11:10;3.08;;;1.90;;
20557;SDS011;10437;48.156;11.530;2022-07-06T07:13:37;3.95;;;1.90;;
20557;SDS011;10437;48.156;11.530;2022-07-06T07:16:04;3.75;;;1.85;;
20557;SDS011;10437;48.156;11.530;2022-07-06T07:18:33;2.38;;;1.83;;
20557;SDS011;10437;48.156;11.530;2022-07-06T07:21:00;2.35;;;1.73;;
20557;SDS011;10437;48.156;11.530;2022-07-06T07:23:27;2.17;;;1.58;;
20557;SDS011;10437;48.156;11.530;2022-07-06T07:25:55;4.32;;;1.90;;
20557;SDS011;10437;48.156;11.530;2022-07-06T07:28:22;2.72;;;1.63;;
20557;SDS011;10437;48.156;11.530;2022-07-06T07:30:49;2.28;;;1.55;;
20557;SDS011;10437;48.156;11.530;2022-07-06T07:33:16;3.97;;;2.15;;
20557;SDS011;10437;48.156;11.530;2022-07-06T07:35:45;3.80;;;1.80;;
20557;SDS011;10437;48.156;11.530;2022-07-06T07:38:11;2.28;;;1.50;;
20557;SDS011;10437;48.156;11.530;2022-07-06T07:40:39;7.93;;;1.77;;
20557;SDS011;10437;48.156;11.530;2022-07-06T07:43:06;2.72;;;1.58;;
20557;SDS011;10437;48.156;11.530;2022-07-06T07:45:33;4.60;;;1.60;;
20557;SDS011;10437;48.156;11.530;2022-07-06T07:48:00;3.17;;;1.75;;
20557;SDS011;10437;48.156;11.530;2022-07-06T07:50:27;2.50;;;1.90;;
20557;SDS011;10437;48.156;11.530;2022-07-06T07:52:56;15.57;;;2.65;;
20557;SDS011;10437;48.156;11.530;2022-07-06T07:55:23;6.72;;;1.50;;
20557;SDS011;10437;48.156;11.530;2022-07-06T07:57:50;3.35;;;1.90;;
20557;SDS011;10437;48.156;11.530;2022-07-06T08:00:17;3.30;;;1.80;;
20557;SDS011;10437;48.156;11.530;2022-07-06T08:02:46;3.45;;;1.50;;
20557;SDS011;10437;48.156;11.530;2022-07-06T08:05:13;2.92;;;1.48;;
20557;SDS011;10437;48.156;11.530;2022-07-06T08:07:41;2.58;;;1.58;;
20557;SDS011;10437;48.156;11.530;2022-07-06T08:10:09;5.63;;;1.60;;
20557;SDS011;10437;48.156;11.530;2022-07-06T08:12:37;5.82;;;1.90;;
20557;SDS011;10437;48.156;11.530;2022-07-06T08:15:04;3.35;;;1.55;;
20557;SDS011;10437;48.156;11.530;2022-07-06T08:17:32;3.10;;;1.83;;
20557;SDS011;10437;48.156;11.530;2022-07-06T08:19:59;1.90;;;1.70;;
20557;SDS011;10437;48.156;11.530;2022-07-06T08:22:26;4.32;;;1.98;;
20557;SDS011;10437;48.156;11.530;2022-07-06T08:24:54;3.97;;;1.67;;
20557;SDS011;10437;48.156;11.530;2022-07-06T08:27:24;7.70;;;2.30;;
20557;SDS011;10437;48.156;11.530;2022-07-06T08:29:52;9.27;;;2.25;;
20557;SDS011;10437;48.156;11.530;2022-07-06T08:32:19;9.60;;;2.97;;
20557;SDS011;10437;48.156;11.530;2022-07-06T08:34:46;4.15;;;2.17;;
20557;SDS011;10437;48.156;11.530;2022-07-06T08:37:13;3.00;;;1.95;;
20557;SDS011;10437;48.156;11.530;2022-07-06T08:39:40;5.07;;;2.10;;
20557;SDS011;10437;48.156;11.530;2022-07-06T08:42:07;23.52;;;3.03;;
20557;SDS011;10437;48.156;11.530;2022-07-06T08:44:37;2.53;;;1.80;;
20557;SDS011;10437;48.156;11.530;2022-07-06T08:47:05;14.05;;;2.53;;
20557;SDS011;10437;48.156;11.530;2022-07-06T08:49:33;2.38;;;1.73;;
20557;SDS011;10437;48.156;11.530;2022-07-06T08:52:02;4.07;;;2.00;;
20557;SDS011;10437;48.156;11.530;2022-07-06T08:54:30;5.32;;;2.10;;
20557;SDS011;10437;48.156;11.530;2022-07-06T08:56:57;24.40;;;2.90;;
20557;SDS011;10437;48.156;11.530;2022-07-06T08:59:25;14.90;;;2.92;;
20557;SDS011;10437;48.156;11.530;2022-07-06T09:01:54;5.05;;;2.00;;
20557;SDS011;10437;48.156;11.530;2022-07-06T09:04:22;4.18;;;2.08;;
20557;SDS011;10437;48.156;11.530;2022-07-06T09:06:49;7.45;;;2.10;;
20557;SDS011;10437;48.156;11.530;2022-07-06T09:09:18;5.00;;;2.00;;
20557;SDS011;10437;48.156;11.530;2022-07-06T09:11:47;7.90;;;2.25;;
20557;SDS011;10437;48.156;11.530;2022-07-06T09:14:15;16.95;;;3.25;;
20557;SDS011;10437;48.156;11.530;2022-07-06T09:16:42;14.77;;;3.00;;
20557;SDS011;10437;48.156;11.530;2022-07-06T09:19:11;5.45;;;2.00;;
20557;SDS011;10437;48.156;11.530;2022-07-06T09:21:39;3.28;;;1.77;;
20557;SDS011;10437;48.156;11.530;2022-07-06T09:24:08;4.80;;;2.20;;
20557;SDS011;10437;48.156;11.530;2022-07-06T09:26:36;4.28;;;2.40;;
20557;SDS011;10437;48.156;11.530;2022-07-06T09:29:04;4.13;;;2.00;;
20557;SDS011;10437;48.156;11.530;2022-07-06T09:31:31;4.28;;;2.17;;
20557;SDS011;10437;48.156;11.530;2022-07-06T09:33:59;3.03;;;2.03;;
20557;SDS011;10437;48.156;11.530;2022-07-06T09:36:38;3.40;;;1.92;;
20557;SDS011;10437;48.156;11.530;2022-07-06T09:39:16;3.78;;;1.80;;
20557;SDS011;10437;48.156;11.530;2022-07-06T09:41:43;4.13;;;2.00;;
20557;SDS011;10437;48.156;11.530;2022-07-06T09:44:10;4.60;;;1.88;;
20557;SDS011;10437;48.156;11.530;2022-07-06T09:46:37;31.00;;;3.45;;
20557;SDS011;10437;48.156;11.530;2022-07-06T09:49:06;49.25;;;3.95;;
20557;SDS011;10437;48.156;11.530;2022-07-06T09:51:35;8.55;;;2.97;;
20557;SDS011;10437;48.156;11.530;2022-07-06T09:54:05;3.85;;;1.95;;
20557;SDS011;10437;48.156;11.530;2022-07-06T09:56:37;3.15;;;2.20;;
20557;SDS011;10437;48.156;11.530;2022-07-06T09:59:05;7.25;;;2.40;;
20557;SDS011;10437;48.156;11.530;2022-07-06T10:01:35;3.83;;;2.30;;
20557;SDS011;10437;48.156;11.530;2022-07-06T10:04:02;9.48;;;2.05;;
20557;SDS011;10437;48.156;11.530;2022-07-06T10:06:30;9.95;;;2.30;;
20557;SDS011;10437;48.156;11.530;2022-07-06T10:08:58;2.88;;;2.00;;
20557;SDS011;10437;48.156;11.530;2022-07-06T10:11:26;3.28;;;1.92;;
20557;SDS011;10437;48.156;11.530;2022-07-06T10:13:55;12.82;;;3.83;;
20557;SDS011;10437;48.156;11.530;2022-07-06T10:16:23;8.90;;;2.70;;
20557;SDS011;10437;48.156;11.530;2022-07-06T10:18:50;4.05;;;2.20;;
20557;SDS011;10437;48.156;11.530;2022-07-06T10:21:20;2.92;;;1.90;;
20557;SDS011;10437;48.156;11.530;2022-07-06T10:23:48;8.20;;;2.20;;
20557;SDS011;10437;48.156;11.530;2022-07-06T10:26:16;12.90;;;2.25;;
20557;SDS011;10437;48.156;11.530;2022-07-06T10:28:44;5.13;;;2.10;;
20557;SDS011;10437;48.156;11.530;2022-07-06T10:31:13;9.25;;;2.30;;
20557;SDS011;10437;48.156;11.530;2022-07-06T10:33:40;5.72;;;2.00;;
20557;SDS011;10437;48.156;11.530;2022-07-06T10:36:08;6.72;;;2.38;;
20557;SDS011;10437;48.156;11.530;2022-07-06T10:38:35;7.00;;;2.28;;
20557;SDS011;10437;48.156;11.530;2022-07-06T10:41:03;7.55;;;2.45;;
20557;SDS011;10437;48.156;11.530;2022-07-06T10:43:35;4.95;;;2.05;;
20557;SDS011;10437;48.156;11.530;2022-07-06T10:46:06;3.65;;;2.40;;
20557;SDS011;10437;48.156;11.530;2022-07-06T10:48:35;7.63;;;2.67;;
20557;SDS011;10437;48.156;11.530;2022-07-06T10:51:04;2.63;;;1.75;;
20557;SDS011;10437;48.156;11.530;2022-07-06T10:53:32;2.55;;;1.70;;
20557;SDS011;10437;48.156;11.530;2022-07-06T10:56:00;4.97;;;2.05;;
20557;SDS011;10437;48.156;11.530;2022-07-06T10:58:48;7.93;;;3.35;;
20557;SDS011;10437;48.156;11.530;2022-07-06T11:01:17;4.75;;;2.20;;
20557;SDS011;10437;48.156;11.530;2022-07-06T11:03:45;3.40;;;1.98;;
20557;SDS011;10437;48.156;11.530;2022-07-06T11:06:14;3.45;;;2.30;;
20557;SDS011;10437;48.156;11.530;2022-07-06T11:08:49;4.45;;;2.00;;
20557;SDS011;10437;48.156;11.530;2022-07-06T11:11:18;4.15;;;2.13;;
20557;SDS011;10437;48.156;11.530;2022-07-06T11:13:50;6.60;;;1.90;;
20557;SDS011;10437;48.156;11.530;2022-07-06T11:16:19;5.53;;;2.08;;
20557;SDS011;10437;48.156;11.530;2022-07-06T11:18:49;5.60;;;2.25;;
20557;SDS011;10437;48.156;11.530;2022-07-06T11:21:31;2.53;;;2.03;;
20557;SDS011;10437;48.156;11.530;2022-07-06T11:23:59;3.35;;;1.90;;
20557;SDS011;10437;48.156;11.530;2022-07-06T11:26:27;4.03;;;2.20;;
20557;SDS011;10437;48.156;11.530;2022-07-06T11:28:55;7.57;;;1.90;;
20557;SDS011;10437;48.156;11.530;2022-07-06T11:31:25;5.53;;;2.20;;
20557;SDS011;10437;48.156;11.530;2022-07-06T11:33:52;2.45;;;1.77;;
20557;SDS011;10437;48.156;11.530;2022-07-06T11:36:20;3.67;;;1.90;;
20557;SDS011;10437;48.156;11.530;2022-07-06T11:38:48;4.32;;;2.00;;
20557;SDS011;10437;48.156;11.530;2022-07-06T11:41:16;7.32;;;2.10;;
20557;SDS011;10437;48.156;11.530;2022-07-06T11:43:44;2.78;;;2.10;;
20557;SDS011;10437;48.156;11.530;2022-07-06T11:46:20;4.20;;;2.03;;
20557;SDS011;10437;48.156;11.530;2022-07-06T11:48:49;4.03;;;2.00;;
20557;SDS011;10437;48.156;11.530;2022-07-06T11:51:18;4.25;;;1.75;;
20557;SDS011;10437;48.156;11.530;2022-07-06T11:53:45;4.28;;;1.75;;
20557;SDS011;10437;48.156;11.530;2022-07-06T11:56:14;2.72;;;1.42;;
20557;SDS011;10437;48.156;11.530;2022-07-06T11:58:41;4.63;;;1.58;;
20557;SDS011;10437;48.156;11.530;2022-07-06T12:01:12;3.45;;;1.42;;
20557;SDS011;10437;48.156;11.530;2022-07-06T12:03:41;6.95;;;2.30;;
20557;SDS011;10437;48.156;11.530;2022-07-06T12:06:15;5.05;;;2.00;;
20557;SDS011;10437;48.156;11.530;2022-07-06T12:08:45;5.13;;;1.63;;
20557;SDS011;10437;48.156;11.530;2022-07-06T12:11:17;3.22;;;1.60;;
20557;SDS011;10437;48.156;11.530;2022-07-06T12:13:46;3.25;;;1.80;;
20557;SDS011;10437;48.156;11.530;2022-07-06T12:16:14;4.90;;;1.80;;
20557;SDS011;10437;48.156;11.530;2022-07-06T12:18:43;4.13;;;1.60;;
20557;SDS011;10437;48.156;11.530;2022-07-06T12:21:12;4.05;;;2.03;;
20557;SDS011;10437;48.156;11.530;2022-07-06T12:23:42;4.47;;;2.60;;
20557;SDS011;10437;48.156;11.530;2022-07-06T12:26:10;2.08;;;1.75;;
20557;SDS011;10437;48.156;11.530;2022-07-06T12:28:38;3.50;;;1.98;;
20557;SDS011;10437;48.156;11.530;2022-07-06T12:31:05;2.70;;;1.70;;
20557;SDS011;10437;48.156;11.530;2022-07-06T12:33:33;3.88;;;1.83;;
20557;SDS011;10437;48.156;11.530;2022-07-06T12:36:11;3.72;;;1.65;;
20557;SDS011;10437;48.156;11.530;2022-07-06T12:38:43;6.50;;;1.83;;
20557;SDS011;10437;48.156;11.530;2022-07-06T12:41:23;6.53;;;2.00;;
20557;SDS011;10437;48.156;11.530;2022-07-06T12:44:01;7.22;;;1.88;;
20557;SDS011;10437;48.156;11.530;2022-07-06T12:46:30;2.00;;;1.50;;
20557;SDS011;10437;48.156;11.530;2022-07-06T12:48:59;4.70;;;1.50;;
20557;SDS011;10437;48.156;11.530;2022-07-06T12:51:29;3.75;;;1.55;;
20557;SDS011;10437;48.156;11.530;2022-07-06T12:54:11;2.75;;;1.73;;
20557;SDS011;10437;48.156;11.530;2022-07-06T12:59:24;3.70;;;1.75;;
20557;SDS011;10437;48.156;11.530;2022-07-06T13:01:51;3.08;;;1.40;;
20557;SDS011;10437;48.156;11.530;2022-07-06T13:04:21;6.88;;;1.63;;
20557;SDS011;10437;48.156;11.530;2022-07-06T13:06:50;4.15;;;1.52;;
20557;SDS011;10437;48.156;11.530;2022-07-06T13:09:17;5.25;;;1.73;;
20557;SDS011;10437;48.156;11.530;2022-07-06T13:11:44;3.13;;;1.83;;
20557;SDS011;10437;48.156;11.530;2022-07-06T13:14:12;3.20;;;1.45;;
20557;SDS011;10437;48.156;11.530;2022-07-06T13:16:39;2.10;;;1.40;;
20557;SDS011;10437;48.156;11.530;2022-07-06T13:19:06;4.22;;;1.55;;
20557;SDS011;10437;48.156;11.530;2022-07-06T13:21:34;3.25;;;1.80;;
20557;SDS011;10437;48.156;11.530;2022-07-06T13:24:02;1.80;;;1.58;;
20557;SDS011;10437;48.156;11.530;2022-07-06T13:26:30;3.88;;;1.63;;
20557;SDS011;10437;48.156;11.530;2022-07-06T13:28:58;2.35;;;1.90;;
20557;SDS011;10437;48.156;11.530;2022-07-06T13:31:25;6.00;;;1.52;;
20557;SDS011;10437;48.156;11.530;2022-07-06T13:33:53;2.40;;;1.73;;
20557;SDS011;10437;48.156;11.530;2022-07-06T13:36:20;3.03;;;1.58;;
20557;SDS011;10437;48.156;11.530;2022-07-06T13:38:47;4.10;;;1.70;;
20557;SDS011;10437;48.156;11.530;2022-07-06T13:41:15;5.35;;;1.80;;
20557;SDS011;10437;48.156;11.530;2022-07-06T13:43:43;2.20;;;1.70;;
20557;SDS011;10437;48.156;11.530;2022-07-06T13:46:09;1.65;;;1.45;;
20557;SDS011;10437;48.156;11.530;2022-07-06T13:48:37;3.45;;;1.42;;
20557;SDS011;10437;48.156;11.530;2022-07-06T13:51:04;2.53;;;1.55;;
20557;SDS011;10437;48.156;11.530;2022-07-06T13:53:31;3.20;;;1.90;;
20557;SDS011;10437;48.156;11.530;2022-07-06T13:55:58;7.40;;;1.80;;
20557;SDS011;10437;48.156;11.530;2022-07-06T13:58:26;4.18;;;1.63;;
20557;SDS011;10437;48.156;11.530;2022-07-06T14:00:53;2.72;;;1.67;;
20557;SDS011;10437;48.156;11.530;2022-07-06T14:03:20;2.65;;;1.48;;
20557;SDS011;10437;48.156;11.530;2022-07-06T14:05:52;2.80;;;1.80;;
20557;SDS011;10437;48.156;11.530;2022-07-06T14:08:20;3.08;;;1.60;;
20557;SDS011;10437;48.156;11.530;2022-07-06T14:10:48;3.88;;;1.50;;
20557;SDS011;10437;48.156;11.530;2022-07-06T14:13:15;3.47;;;1.67;;
20557;SDS011;10437;48.156;11.530;2022-07-06T14:15:43;2.22;;;1.60;;
20557;SDS011;10437;48.156;11.530;2022-07-06T14:18:10;2.10;;;1.58;;
20557;SDS011;10437;48.156;11.530;2022-07-06T14:20:37;3.58;;;1.60;;
20557;SDS011;10437;48.156;11.530;2022-07-06T14:23:04;4.65;;;1.65;;
20557;SDS011;10437;48.156;11.530;2022-07-06T14:25:31;3.65;;;1.52;;
20557;SDS011;10437;48.156;11.530;2022-07-06T14:27:59;7.40;;;1.67;;
20557;SDS011;10437;48.156;11.530;2022-07-06T14:30:27;2.45;;;1.40;;
20557;SDS011;10437;48.156;11.530;2022-07-06T14:32:55;6.22;;;1.50;;
20557;SDS011;10437;48.156;11.530;2022-07-06T14:35:22;3.33;;;1.50;;
20557;SDS011;10437;48.156;11.530;2022-07-06T14:37:50;2.58;;;1.38;;
20557;SDS011;10437;48.156;11.530;2022-07-06T14:40:17;2.08;;;1.50;;